Cover City, Nevada
Current Conditions -  °F | °C
As of 5:35 PM on Monday 20 Oct 2014 (Local Time) from KENV Reporting Station
Broken Clouds Broken Clouds  
Wind Chill: 68°   Ceiling: 11000
Heat Index: 68°   Visibility: 10mi
Dew Point: 36°   Wind: 0mph
Humidity: 30%   Direction: NA
Pressure: 29.88"   Gusts: NA
Location:  41.0114°N, 114.57°W
Report Text: KENV 210035Z AUTO 00000KT 10SM BKN110 20/02 A2988 RMK AO1
Loading
Personal Weather Stations






























Interactive Weather Map
Tropical Storm Tracking
New forecast layout! Learn more

10-Day Weather Forecast

Advertisements
Track Severe Weather on mobile